createdAt,value
2018-02-19T00:00:24.726Z,1.40
2018-02-19T00:02:52.186Z,1.40
2018-02-19T00:05:19.639Z,1.30
2018-02-19T00:07:47.102Z,1.30
2018-02-19T00:10:14.573Z,1.30
2018-02-19T00:12:42.036Z,1.40
2018-02-19T00:15:09.490Z,1.40
2018-02-19T00:17:36.947Z,1.30
2018-02-19T00:20:04.418Z,1.30
2018-02-19T00:22:31.869Z,1.30
2018-02-19T00:24:59.339Z,1.20
2018-02-19T00:27:26.794Z,1.20
2018-02-19T00:29:54.239Z,1.20
2018-02-19T00:32:21.718Z,1.20
2018-02-19T00:34:49.164Z,1.30
2018-02-19T00:37:17.386Z,1.20
2018-02-19T00:39:44.830Z,1.20
2018-02-19T00:42:13.063Z,1.20
2018-02-19T00:44:40.536Z,1.20
2018-02-19T00:47:07.986Z,1.20
2018-02-19T00:49:35.439Z,1.30
2018-02-19T00:52:02.897Z,1.30
2018-02-19T00:54:30.359Z,1.30
2018-02-19T00:56:57.810Z,1.30
2018-02-19T00:59:25.291Z,1.30
2018-02-19T01:01:52.744Z,1.30
2018-02-19T01:04:20.203Z,1.30
2018-02-19T01:06:47.647Z,1.20
2018-02-19T01:09:15.112Z,1.20
2018-02-19T01:11:42.571Z,1.20
2018-02-19T01:14:10.038Z,1.10
2018-02-19T01:16:37.491Z,1.20
2018-02-19T01:19:04.950Z,1.20
2018-02-19T01:21:32.409Z,1.20
2018-02-19T01:23:59.870Z,1.20
2018-02-19T01:26:27.317Z,1.20
2018-02-19T01:28:54.765Z,1.20
2018-02-19T01:31:22.999Z,1.20
2018-02-19T01:33:51.210Z,1.20
2018-02-19T01:36:18.679Z,1.20
2018-02-19T01:38:46.111Z,1.20
2018-02-19T01:41:13.568Z,1.20
2018-02-19T01:43:41.032Z,1.20
2018-02-19T01:46:08.535Z,1.30
2018-02-19T01:48:36.761Z,1.20
2018-02-19T01:51:04.222Z,1.20
2018-02-19T01:53:31.682Z,1.20
2018-02-19T01:55:59.141Z,1.20
2018-02-19T01:58:26.590Z,1.30
2018-02-19T02:00:54.045Z,1.30
2018-02-19T02:03:21.502Z,1.30
2018-02-19T02:05:49.728Z,1.30
2018-02-19T02:08:17.188Z,1.30
2018-02-19T02:10:44.641Z,1.20
2018-02-19T02:13:12.094Z,1.30
2018-02-19T02:15:39.529Z,1.30
2018-02-19T02:18:07.763Z,1.30
2018-02-19T02:20:35.219Z,1.30
2018-02-19T02:23:02.698Z,1.30
2018-02-19T02:25:30.256Z,1.30
2018-02-19T02:27:57.710Z,1.30
2018-02-19T02:30:25.191Z,1.30
2018-02-19T02:32:52.643Z,1.30
2018-02-19T02:35:20.100Z,1.30
2018-02-19T02:37:47.597Z,1.30
2018-02-19T02:40:15.064Z,1.30
2018-02-19T02:42:42.514Z,1.30
2018-02-19T02:45:09.958Z,1.30
2018-02-19T02:47:37.418Z,1.40
2018-02-19T02:50:04.856Z,1.30
2018-02-19T02:52:32.324Z,1.30
2018-02-19T02:54:59.767Z,1.30
2018-02-19T02:57:27.238Z,1.30
2018-02-19T02:59:54.715Z,1.30
2018-02-19T03:02:22.171Z,1.30
2018-02-19T03:04:49.669Z,1.30
2018-02-19T03:07:17.148Z,1.30
2018-02-19T03:09:44.586Z,1.30
2018-02-19T03:12:12.042Z,1.30
2018-02-19T03:14:39.508Z,1.30
2018-02-19T03:17:06.963Z,1.30
2018-02-19T03:19:34.407Z,1.30
2018-02-19T03:22:01.871Z,1.30
2018-02-19T03:24:29.334Z,1.30
2018-02-19T03:26:56.790Z,1.30
2018-02-19T03:31:58.137Z,1.30
2018-02-19T03:34:26.375Z,1.30
2018-02-19T03:36:53.828Z,1.30
2018-02-19T03:39:21.294Z,1.30
2018-02-19T03:41:48.748Z,1.30
2018-02-19T03:44:16.211Z,1.30
2018-02-19T03:46:43.666Z,1.30
2018-02-19T03:49:11.122Z,1.30
2018-02-19T03:51:39.350Z,1.30
2018-02-19T03:54:06.813Z,1.30
2018-02-19T03:56:34.259Z,1.30
2018-02-19T03:59:01.740Z,1.30
2018-02-19T04:01:29.178Z,1.30
2018-02-19T04:03:56.637Z,1.30
2018-02-19T04:06:24.077Z,1.30
2018-02-19T04:08:51.542Z,1.30
2018-02-19T04:11:19.000Z,1.40
2018-02-19T04:13:46.470Z,1.40
2018-02-19T04:16:13.951Z,1.40
2018-02-19T04:18:41.413Z,1.40
2018-02-19T04:21:08.857Z,1.40
2018-02-19T04:23:36.302Z,1.40
2018-02-19T04:26:03.759Z,1.40
2018-02-19T04:28:31.996Z,1.40
2018-02-19T04:30:59.439Z,1.40
2018-02-19T04:33:26.903Z,1.40
2018-02-19T04:35:54.356Z,1.40
2018-02-19T04:38:21.813Z,1.40
2018-02-19T04:40:49.262Z,1.50
2018-02-19T04:43:16.701Z,1.50
2018-02-19T04:45:50.648Z,1.50
2018-02-19T04:48:18.091Z,1.50
2018-02-19T04:50:45.538Z,1.50
2018-02-19T04:53:13.751Z,1.50
2018-02-19T04:55:41.212Z,1.50
2018-02-19T04:58:08.655Z,1.50
2018-02-19T05:00:36.899Z,1.50
2018-02-19T05:03:04.392Z,1.50
2018-02-19T05:05:31.815Z,1.50
2018-02-19T05:07:59.279Z,1.50
2018-02-19T05:10:26.745Z,1.40
2018-02-19T05:12:54.191Z,1.40
2018-02-19T05:15:21.649Z,1.40
2018-02-19T05:17:49.874Z,1.40
2018-02-19T05:20:18.090Z,1.40
2018-02-19T05:22:45.551Z,1.40
2018-02-19T05:25:13.006Z,1.40
2018-02-19T05:27:40.468Z,1.40
2018-02-19T05:30:07.930Z,1.40
2018-02-19T05:32:35.376Z,1.40
2018-02-19T05:35:03.632Z,1.40
2018-02-19T05:37:31.086Z,1.40
2018-02-19T05:39:58.544Z,1.40
2018-02-19T05:42:26.015Z,1.40
2018-02-19T05:44:53.479Z,1.40
2018-02-19T05:47:20.938Z,1.40
2018-02-19T05:49:48.387Z,1.40
2018-02-19T05:52:15.846Z,1.40
2018-02-19T05:54:43.303Z,1.40
2018-02-19T05:57:10.753Z,1.40
2018-02-19T05:59:38.229Z,1.40
2018-02-19T06:02:05.710Z,1.40
2018-02-19T06:04:33.949Z,1.40
2018-02-19T06:07:01.396Z,1.40
2018-02-19T06:09:29.616Z,1.40
2018-02-19T06:11:57.083Z,1.30
2018-02-19T06:14:24.523Z,1.40
2018-02-19T06:16:51.975Z,1.40
2018-02-19T06:19:19.438Z,1.40
2018-02-19T06:21:46.871Z,1.80
2018-02-19T06:24:14.325Z,1.60
2018-02-19T06:26:41.789Z,1.50
2018-02-19T06:29:09.266Z,1.50
2018-02-19T06:31:37.488Z,1.40
2018-02-19T06:34:04.958Z,1.50
2018-02-19T06:36:32.410Z,1.40
2018-02-19T06:38:59.872Z,1.40
2018-02-19T06:41:27.330Z,1.40
2018-02-19T06:43:54.795Z,1.40
2018-02-19T06:46:22.241Z,1.40
2018-02-19T06:48:49.823Z,1.40
2018-02-19T06:51:17.272Z,1.30
2018-02-19T06:53:44.722Z,1.30
2018-02-19T06:56:12.946Z,1.30
2018-02-19T06:58:40.427Z,1.30
2018-02-19T07:01:07.916Z,1.30
2018-02-19T07:03:35.406Z,1.30
2018-02-19T07:06:02.859Z,1.30
2018-02-19T07:08:31.074Z,1.30
2018-02-19T07:10:59.296Z,1.30
2018-02-19T07:13:26.741Z,1.30
2018-02-19T07:15:54.170Z,1.30
2018-02-19T07:18:21.609Z,1.30
2018-02-19T07:20:49.076Z,1.30
2018-02-19T07:23:16.547Z,1.30
2018-02-19T07:25:43.991Z,1.30
2018-02-19T07:28:12.197Z,1.40
2018-02-19T07:30:39.674Z,1.30
2018-02-19T07:33:07.140Z,1.40
2018-02-19T07:35:34.614Z,1.40
2018-02-19T07:38:02.067Z,1.40
2018-02-19T07:40:29.522Z,1.40
2018-02-19T07:42:56.970Z,1.40
2018-02-19T07:45:24.432Z,1.40
2018-02-19T07:47:51.877Z,1.40
2018-02-19T07:50:19.406Z,1.50
2018-02-19T07:52:46.788Z,1.50
2018-02-19T07:55:14.998Z,1.50
2018-02-19T07:57:42.480Z,1.50
2018-02-19T08:00:09.923Z,1.50
2018-02-19T08:02:37.371Z,1.50
2018-02-19T08:05:04.846Z,1.50
2018-02-19T08:07:32.290Z,1.50
2018-02-19T08:10:00.540Z,1.60
2018-02-19T08:12:28.089Z,1.50
2018-02-19T08:14:56.244Z,1.60
2018-02-19T08:17:23.704Z,1.60
2018-02-19T08:19:51.158Z,1.60
2018-02-19T08:22:18.616Z,1.60
2018-02-19T08:24:46.069Z,1.60
2018-02-19T08:27:14.293Z,1.60
2018-02-19T08:29:41.800Z,1.50
2018-02-19T08:32:09.209Z,1.60
2018-02-19T08:34:37.514Z,1.60
2018-02-19T08:37:05.961Z,1.70
2018-02-19T08:39:33.409Z,1.70
2018-02-19T08:42:00.863Z,1.70
2018-02-19T08:44:29.107Z,1.60
2018-02-19T08:46:56.545Z,1.60
2018-02-19T08:49:24.002Z,1.70
2018-02-19T08:51:51.467Z,1.70
2018-02-19T08:54:18.928Z,1.70
2018-02-19T08:56:46.394Z,1.70
2018-02-19T08:59:13.857Z,1.70
2018-02-19T09:01:41.335Z,1.70
2018-02-19T09:04:08.769Z,1.70
2018-02-19T09:06:36.227Z,1.70
2018-02-19T09:09:03.696Z,1.70
2018-02-19T09:11:31.139Z,1.70
2018-02-19T09:13:59.356Z,1.80
2018-02-19T09:16:26.815Z,1.70
2018-02-19T09:18:54.364Z,1.80
2018-02-19T09:21:21.827Z,1.80
2018-02-19T09:23:49.267Z,1.80
2018-02-19T09:26:16.722Z,1.80
2018-02-19T09:28:44.944Z,1.80
2018-02-19T09:31:12.394Z,1.80
2018-02-19T09:33:39.866Z,1.80
2018-02-19T09:36:07.320Z,1.80
2018-02-19T09:38:34.773Z,1.90
2018-02-19T09:41:02.229Z,1.90
2018-02-19T09:46:08.348Z,1.90
2018-02-19T09:48:35.804Z,1.90
2018-02-19T09:51:03.264Z,1.90
2018-02-19T09:53:30.723Z,1.90
2018-02-19T09:55:58.172Z,2.00
2018-02-19T09:58:25.636Z,2.00
2018-02-19T10:00:53.079Z,2.00
2018-02-19T10:03:21.294Z,2.00
2018-02-19T10:05:48.747Z,2.00
2018-02-19T10:08:16.195Z,2.00
2018-02-19T10:10:43.653Z,2.10
2018-02-19T10:13:11.091Z,2.10
2018-02-19T10:15:39.319Z,2.10
2018-02-19T10:18:06.784Z,2.10
2018-02-19T10:20:34.246Z,2.10
2018-02-19T10:23:01.693Z,2.10
2018-02-19T10:25:29.174Z,2.10
2018-02-19T10:27:56.616Z,2.10
2018-02-19T10:30:24.093Z,2.10
2018-02-19T10:32:52.265Z,2.20
2018-02-19T10:35:19.760Z,2.20
2018-02-19T10:37:47.195Z,2.10
2018-02-19T10:40:14.662Z,2.10
2018-02-19T10:42:42.124Z,2.10
2018-02-19T10:45:09.608Z,2.10
2018-02-19T10:47:37.071Z,2.20
2018-02-19T10:50:04.540Z,2.20
2018-02-19T10:52:31.985Z,2.20
2018-02-19T10:54:59.434Z,2.20
2018-02-19T10:57:26.894Z,2.30
2018-02-19T10:59:54.352Z,2.30
2018-02-19T11:02:21.820Z,2.20
2018-02-19T11:04:49.270Z,2.30
2018-02-19T11:07:16.717Z,2.30
2018-02-19T11:09:44.946Z,2.30
2018-02-19T11:12:12.380Z,2.30
2018-02-19T11:14:39.847Z,2.30
2018-02-19T11:17:07.274Z,2.20
2018-02-19T11:19:35.490Z,2.20
2018-02-19T11:22:02.971Z,2.20
2018-02-19T11:24:30.547Z,2.20
2018-02-19T11:26:58.007Z,2.30
2018-02-19T11:29:25.464Z,2.30
2018-02-19T11:31:52.946Z,2.20
2018-02-19T11:34:20.407Z,2.30
2018-02-19T11:36:47.863Z,2.30
2018-02-19T11:39:15.376Z,2.30
2018-02-19T11:41:42.775Z,2.30
2018-02-19T11:44:10.232Z,2.30
2018-02-19T11:46:37.692Z,2.40
2018-02-19T11:49:05.173Z,2.40
2018-02-19T11:51:32.647Z,2.40
2018-02-19T11:54:00.079Z,2.40
2018-02-19T11:56:27.527Z,2.50
2018-02-19T11:58:55.004Z,2.50
2018-02-19T12:01:22.454Z,2.50
2018-02-19T12:03:49.908Z,2.50
2018-02-19T12:06:17.360Z,2.60
2018-02-19T12:08:45.644Z,2.60
2018-02-19T12:11:13.162Z,2.60
2018-02-19T12:13:40.627Z,2.50
2018-02-19T12:16:08.065Z,2.50
2018-02-19T12:18:35.526Z,2.60
2018-02-19T12:21:02.969Z,2.60
2018-02-19T12:23:30.451Z,2.70
2018-02-19T12:25:57.912Z,2.70
2018-02-19T12:28:25.354Z,2.80
2018-02-19T12:30:52.875Z,2.80
2018-02-19T12:33:20.318Z,2.80
2018-02-19T12:35:47.785Z,2.80
2018-02-19T12:38:15.225Z,2.80
2018-02-19T12:40:45.758Z,2.80
2018-02-19T12:43:13.186Z,2.80
2018-02-19T12:45:41.438Z,2.80
2018-02-19T12:48:08.933Z,2.80
2018-02-19T12:50:37.176Z,2.80
2018-02-19T12:53:04.639Z,2.80
2018-02-19T12:55:32.111Z,2.90
2018-02-19T12:57:59.591Z,2.90
2018-02-19T13:00:27.829Z,2.90
2018-02-19T13:02:55.285Z,2.90
2018-02-19T13:05:22.726Z,2.90
2018-02-19T13:07:50.185Z,2.90
2018-02-19T13:10:17.628Z,2.90
2018-02-19T13:12:45.864Z,2.90
2018-02-19T13:15:13.319Z,2.90
2018-02-19T13:17:40.788Z,2.90
2018-02-19T13:20:08.242Z,2.90
2018-02-19T13:22:35.798Z,2.90
2018-02-19T13:25:03.253Z,2.90
2018-02-19T13:27:30.695Z,2.90
2018-02-19T13:29:58.158Z,2.90
2018-02-19T13:32:26.399Z,3.00
2018-02-19T13:34:53.893Z,3.00
2018-02-19T13:37:22.116Z,3.00
2018-02-19T13:39:49.565Z,3.00
2018-02-19T13:42:17.006Z,3.00
2018-02-19T13:44:45.236Z,2.90
2018-02-19T13:47:12.678Z,2.90
2018-02-19T13:49:40.132Z,3.00
2018-02-19T13:52:08.351Z,3.00
2018-02-19T13:54:35.808Z,3.00
2018-02-19T13:57:03.285Z,3.00
2018-02-19T13:59:31.556Z,3.00
2018-02-19T14:01:58.993Z,3.00
2018-02-19T14:04:26.444Z,3.00
2018-02-19T14:06:53.896Z,3.00
2018-02-19T14:09:21.348Z,3.00
2018-02-19T14:11:49.577Z,3.00
2018-02-19T14:14:17.034Z,3.00
2018-02-19T14:16:45.263Z,3.00
2018-02-19T14:19:13.469Z,3.00
2018-02-19T14:21:40.941Z,3.00
2018-02-19T14:24:08.404Z,3.00
2018-02-19T14:26:35.855Z,3.00
2018-02-19T14:29:03.342Z,3.00
2018-02-19T14:31:30.804Z,3.00
2018-02-19T14:33:58.265Z,3.00
2018-02-19T14:36:25.723Z,3.00
2018-02-19T14:38:53.203Z,3.20
2018-02-19T14:41:20.653Z,3.10
2018-02-19T14:43:48.104Z,3.10
2018-02-19T14:46:15.558Z,3.10
2018-02-19T14:48:43.045Z,3.10
2018-02-19T14:51:10.500Z,3.10
2018-02-19T14:53:37.970Z,3.10
2018-02-19T14:56:06.195Z,3.10
2018-02-19T14:58:34.407Z,3.10
2018-02-19T15:01:01.892Z,3.10
2018-02-19T15:03:29.330Z,3.10
2018-02-19T15:05:56.777Z,3.10
2018-02-19T15:08:24.258Z,3.10
2018-02-19T15:10:51.706Z,3.10
2018-02-19T15:13:19.184Z,3.20
2018-02-19T15:15:46.672Z,3.20
2018-02-19T15:18:14.141Z,3.20
2018-02-19T15:20:42.401Z,3.20
2018-02-19T15:23:09.868Z,3.20
2018-02-19T15:25:37.318Z,3.20
2018-02-19T15:28:04.784Z,3.20
2018-02-19T15:30:32.249Z,3.20
2018-02-19T15:32:59.713Z,3.20
2018-02-19T15:35:27.191Z,3.20
2018-02-19T15:37:54.641Z,3.20
2018-02-19T15:40:22.103Z,3.20
2018-02-19T15:42:49.573Z,3.20
2018-02-19T15:45:17.034Z,3.20
2018-02-19T15:47:44.491Z,3.20
2018-02-19T15:50:11.943Z,3.20
2018-02-19T15:52:39.408Z,3.20
2018-02-19T15:55:06.849Z,3.20
2018-02-19T15:57:34.315Z,3.10
2018-02-19T16:00:01.780Z,3.10
2018-02-19T16:02:29.237Z,3.10
2018-02-19T16:04:57.459Z,3.10
2018-02-19T16:07:24.910Z,3.10
2018-02-19T16:09:52.372Z,3.10
2018-02-19T16:12:19.822Z,3.10
2018-02-19T16:14:47.296Z,3.10
2018-02-19T16:17:14.751Z,3.10
2018-02-19T16:19:42.194Z,3.10
2018-02-19T16:22:10.427Z,3.10
2018-02-19T16:24:37.879Z,3.10
2018-02-19T16:27:05.335Z,3.10
2018-02-19T16:29:32.798Z,3.10
2018-02-19T16:32:00.282Z,3.10
2018-02-19T16:34:27.755Z,3.10
2018-02-19T16:36:55.195Z,3.10
2018-02-19T16:39:22.667Z,3.10
2018-02-19T16:41:50.114Z,3.10
2018-02-19T16:44:17.574Z,3.10
2018-02-19T16:46:45.070Z,3.10
2018-02-19T16:49:12.540Z,3.10
2018-02-19T16:51:40.005Z,3.10
2018-02-19T16:54:07.487Z,3.10
2018-02-19T16:56:35.702Z,3.10
2018-02-19T16:59:03.163Z,3.10
2018-02-19T17:01:30.641Z,3.10
2018-02-19T17:03:58.115Z,3.10
2018-02-19T17:06:26.379Z,3.10
2018-02-19T17:08:53.835Z,3.10
2018-02-19T17:11:21.276Z,3.10
2018-02-19T17:13:48.722Z,3.10
2018-02-19T17:16:16.931Z,3.10
2018-02-19T17:18:44.401Z,3.10
2018-02-19T17:21:12.631Z,3.10
2018-02-19T17:23:40.093Z,3.10
2018-02-19T17:26:07.559Z,3.10
2018-02-19T17:28:34.995Z,3.10
2018-02-19T17:31:02.477Z,3.10
2018-02-19T17:33:29.897Z,3.10
2018-02-19T17:35:57.352Z,3.10
2018-02-19T17:38:24.830Z,3.10
2018-02-19T17:40:52.278Z,3.10
2018-02-19T17:43:19.748Z,3.10
2018-02-19T17:45:47.199Z,3.10
2018-02-19T17:48:14.646Z,3.10
2018-02-19T17:50:42.120Z,3.00
2018-02-19T17:53:09.588Z,3.00
2018-02-19T17:55:37.058Z,3.00
2018-02-19T17:58:04.540Z,3.00
2018-02-19T18:00:31.978Z,3.00
2018-02-19T18:02:59.498Z,3.00
2018-02-19T18:05:26.935Z,3.00
2018-02-19T18:07:54.382Z,3.00
2018-02-19T18:10:21.855Z,3.00
2018-02-19T18:12:49.329Z,3.00
2018-02-19T18:15:16.790Z,2.90
2018-02-19T18:17:44.251Z,2.90
2018-02-19T18:20:11.711Z,2.90
2018-02-19T18:22:39.166Z,2.90
2018-02-19T18:25:06.624Z,2.90
2018-02-19T18:27:34.099Z,2.90
2018-02-19T18:30:01.581Z,2.90
2018-02-19T18:32:29.055Z,2.90
2018-02-19T18:34:57.258Z,2.90
2018-02-19T18:37:24.763Z,2.90
2018-02-19T18:39:52.233Z,2.90
2018-02-19T18:42:19.745Z,2.90
2018-02-19T18:44:47.238Z,2.90
2018-02-19T18:47:14.908Z,2.90
2018-02-19T18:49:42.426Z,2.90
2018-02-19T18:52:10.662Z,2.90
2018-02-19T18:54:38.142Z,2.90
2018-02-19T18:57:05.636Z,2.90
2018-02-19T18:59:33.861Z,2.90
2018-02-19T19:02:02.172Z,2.90
2018-02-19T19:04:29.645Z,2.90
2018-02-19T19:06:57.112Z,2.90
2018-02-19T19:09:36.566Z,2.90
2018-02-19T19:12:04.037Z,2.90
2018-02-19T19:14:31.516Z,2.90
2018-02-19T19:16:58.995Z,2.90
2018-02-19T19:19:26.489Z,2.90
2018-02-19T19:21:53.945Z,2.90
2018-02-19T19:24:21.398Z,2.90
2018-02-19T19:26:48.910Z,2.90
2018-02-19T19:29:16.371Z,2.90
2018-02-19T19:31:44.606Z,2.90
2018-02-19T19:34:12.116Z,2.90
2018-02-19T19:36:40.392Z,2.90
2018-02-19T19:39:08.607Z,2.90
2018-02-19T19:41:36.090Z,2.90
2018-02-19T19:44:03.595Z,2.90
2018-02-19T19:46:31.866Z,2.90
2018-02-19T19:49:00.119Z,2.90
2018-02-19T19:51:27.593Z,2.90
2018-02-19T19:53:55.067Z,2.90
2018-02-19T19:56:22.586Z,3.00
2018-02-19T19:58:50.092Z,2.90
2018-02-19T20:01:17.610Z,2.90
2018-02-19T20:03:45.104Z,2.90
2018-02-19T20:06:12.564Z,2.90
2018-02-19T20:08:40.039Z,3.00
2018-02-19T20:11:07.510Z,3.00
2018-02-19T20:13:35.006Z,2.90
2018-02-19T20:16:02.524Z,2.90
2018-02-19T20:18:30.001Z,2.90
2018-02-19T20:20:57.469Z,3.00
2018-02-19T20:23:24.923Z,3.00
2018-02-19T20:25:52.403Z,3.00
2018-02-19T20:28:19.872Z,2.90
2018-02-19T20:30:48.120Z,2.90
2018-02-19T20:33:15.591Z,2.90
2018-02-19T20:35:43.042Z,2.90
2018-02-19T20:38:10.473Z,2.90
2018-02-19T20:40:37.978Z,2.90
2018-02-19T20:43:05.430Z,2.90
2018-02-19T20:45:32.918Z,3.00
2018-02-19T20:48:01.174Z,2.90
2018-02-19T20:50:28.642Z,2.90
2018-02-19T20:52:56.112Z,3.00
2018-02-19T20:55:23.564Z,3.00
2018-02-19T20:57:51.025Z,3.00
2018-02-19T21:00:19.235Z,2.90
2018-02-19T21:02:47.477Z,2.90
2018-02-19T21:05:14.935Z,2.90
2018-02-19T21:07:43.142Z,2.90
2018-02-19T21:10:10.580Z,2.90
2018-02-19T21:12:38.035Z,2.90
2018-02-19T21:15:05.521Z,2.90
2018-02-19T21:17:32.963Z,2.90
2018-02-19T21:20:00.465Z,3.00
2018-02-19T21:22:27.950Z,2.90
2018-02-19T21:24:55.400Z,2.90
2018-02-19T21:27:23.647Z,2.90
2018-02-19T21:29:51.104Z,2.90
2018-02-19T21:32:18.564Z,2.90
2018-02-19T21:34:46.046Z,2.90
2018-02-19T21:37:13.505Z,2.90
2018-02-19T21:39:40.972Z,2.90
2018-02-19T21:42:09.147Z,2.90
2018-02-19T21:44:36.619Z,2.90
2018-02-19T21:47:04.064Z,2.90
2018-02-19T21:49:31.523Z,2.90
2018-02-19T21:51:59.002Z,2.90
2018-02-19T21:54:26.459Z,2.90
2018-02-19T21:56:53.904Z,2.90
2018-02-19T21:59:21.492Z,2.80
2018-02-19T22:01:49.740Z,2.90
2018-02-19T22:04:17.187Z,2.80
2018-02-19T22:06:44.656Z,2.80
2018-02-19T22:09:12.088Z,2.80
2018-02-19T22:11:40.361Z,2.70
2018-02-19T22:14:08.582Z,2.70
2018-02-19T22:16:36.045Z,2.70
2018-02-19T22:19:03.499Z,2.70
2018-02-19T22:21:30.964Z,2.70
2018-02-19T22:23:58.421Z,2.60
2018-02-19T22:26:25.897Z,2.70
2018-02-19T22:28:53.351Z,2.60
2018-02-19T22:31:20.815Z,2.60
2018-02-19T22:33:48.261Z,2.60
2018-02-19T22:36:15.742Z,2.60
2018-02-19T22:38:43.204Z,2.50
2018-02-19T22:41:10.651Z,2.60
2018-02-19T22:43:38.107Z,2.50
2018-02-19T22:46:06.327Z,2.50
2018-02-19T22:48:33.789Z,2.50
2018-02-19T22:51:01.258Z,2.40
2018-02-19T22:53:28.716Z,2.40
2018-02-19T22:55:56.171Z,2.50
2018-02-19T22:58:23.629Z,2.50
2018-02-19T23:00:51.137Z,2.40
2018-02-19T23:03:18.596Z,2.30
2018-02-19T23:05:46.021Z,2.50
2018-02-19T23:08:13.486Z,2.50
2018-02-19T23:10:40.947Z,2.50
2018-02-19T23:13:08.411Z,2.60
2018-02-19T23:15:35.859Z,2.40
2018-02-19T23:18:03.307Z,2.50
2018-02-19T23:20:30.754Z,2.50
2018-02-19T23:22:59.004Z,2.50
2018-02-19T23:25:26.452Z,2.50
2018-02-19T23:27:53.941Z,2.50
2018-02-19T23:30:21.420Z,2.40
2018-02-19T23:32:49.676Z,2.40
2018-02-19T23:35:17.103Z,2.40
2018-02-19T23:37:44.582Z,2.50
2018-02-19T23:40:12.028Z,2.40
2018-02-19T23:42:39.478Z,2.40
2018-02-19T23:45:06.930Z,2.50
2018-02-19T23:47:34.367Z,2.40
2018-02-19T23:50:01.830Z,2.40
2018-02-19T23:52:29.276Z,2.40
2018-02-19T23:54:56.738Z,2.40
2018-02-19T23:57:24.186Z,2.40
2018-02-19T23:59:51.635Z,2.40
